createdAt,value
2022-12-08T00:02:12.113Z,16.25
2022-12-08T00:04:38.940Z,16.51
2022-12-08T00:07:05.389Z,16.10
2022-12-08T00:09:39.520Z,16.64
2022-12-08T00:12:07.823Z,16.17
2022-12-08T00:14:38.535Z,15.91
2022-12-08T00:17:07.047Z,16.68
2022-12-08T00:19:34.044Z,16.87
2022-12-08T00:22:00.577Z,16.84
2022-12-08T00:24:32.444Z,15.74
2022-12-08T00:26:58.905Z,16.05
2022-12-08T00:29:25.436Z,16.71
2022-12-08T00:31:52.440Z,16.82
2022-12-08T00:34:20.078Z,16.83
2022-12-08T00:36:47.123Z,16.58
2022-12-08T00:39:15.271Z,17.20
2022-12-08T00:41:41.824Z,16.62
2022-12-08T00:44:09.981Z,16.50
2022-12-08T00:46:37.016Z,17.10
2022-12-08T00:49:05.601Z,16.78
2022-12-08T00:51:33.163Z,17.26
2022-12-08T00:53:59.975Z,16.51
2022-12-08T00:56:27.504Z,16.94
2022-12-08T00:58:54.461Z,17.17
2022-12-08T01:01:21.165Z,17.04
2022-12-08T01:03:48.088Z,17.14
2022-12-08T01:06:14.663Z,17.32
2022-12-08T01:08:41.869Z,17.48
2022-12-08T01:11:17.550Z,17.31
2022-12-08T01:13:44.480Z,17.23
2022-12-08T01:16:29.250Z,18.17
2022-12-08T01:18:57.625Z,17.44
2022-12-08T01:21:25.646Z,17.48
2022-12-08T01:23:52.318Z,18.39
2022-12-08T01:26:19.799Z,18.98
2022-12-08T01:28:47.501Z,18.27
2022-12-08T01:31:17.365Z,18.08
2022-12-08T01:33:45.378Z,19.11
2022-12-08T01:36:24.461Z,18.92
2022-12-08T01:38:52.394Z,19.01
2022-12-08T01:41:23.733Z,19.85
2022-12-08T01:44:08.252Z,19.04
2022-12-08T01:46:37.904Z,19.80
2022-12-08T01:49:32.892Z,18.78
2022-12-08T01:52:10.810Z,19.27
2022-12-08T01:54:44.706Z,18.36
2022-12-08T01:57:18.540Z,19.35
2022-12-08T01:59:52.988Z,18.66
2022-12-08T02:02:19.537Z,18.39
2022-12-08T02:04:46.041Z,19.20
2022-12-08T02:07:16.223Z,19.17
2022-12-08T02:09:44.017Z,19.05
2022-12-08T02:12:11.799Z,19.44
2022-12-08T02:14:38.929Z,19.46
2022-12-08T02:17:26.624Z,20.03
2022-12-08T02:20:18.491Z,19.38
2022-12-08T02:22:57.111Z,19.87
2022-12-08T02:25:36.232Z,19.98
2022-12-08T02:28:27.445Z,19.95
2022-12-08T02:31:20.453Z,20.92
2022-12-08T02:34:14.781Z,19.97
2022-12-08T02:37:08.180Z,21.62
2022-12-08T02:39:57.991Z,20.85
2022-12-08T02:42:30.616Z,20.48
2022-12-08T02:45:24.664Z,20.73
2022-12-08T02:47:52.453Z,20.08
2022-12-08T02:50:19.352Z,20.65
2022-12-08T02:52:47.656Z,20.52
2022-12-08T02:55:30.547Z,20.18
2022-12-08T02:58:06.135Z,20.75
2022-12-08T03:01:10.955Z,20.79
2022-12-08T03:03:46.633Z,20.40
2022-12-08T03:06:42.644Z,21.21
2022-12-08T03:09:30.560Z,20.15
2022-12-08T03:12:41.583Z,21.13
2022-12-08T03:15:14.158Z,20.68
2022-12-08T03:17:47.157Z,20.36
2022-12-08T03:20:20.583Z,21.29
2022-12-08T03:22:51.689Z,20.81
2022-12-08T03:25:22.676Z,20.64
2022-12-08T03:27:51.433Z,20.95
2022-12-08T03:30:18.589Z,21.31
2022-12-08T03:33:01.515Z,20.91
2022-12-08T03:35:33.046Z,21.00
2022-12-08T03:38:12.050Z,21.08
2022-12-08T03:40:39.676Z,21.31
2022-12-08T03:43:06.212Z,21.70
2022-12-08T03:45:33.098Z,21.39
2022-12-08T03:47:59.583Z,21.01
2022-12-08T03:50:26.425Z,21.30
2022-12-08T03:52:52.900Z,21.07
2022-12-08T03:55:19.665Z,21.29
2022-12-08T03:57:46.197Z,21.18
2022-12-08T04:00:15.719Z,21.22
2022-12-08T04:02:42.402Z,21.11
2022-12-08T04:05:09.035Z,21.12
2022-12-08T04:07:35.606Z,21.35
2022-12-08T04:10:02.529Z,20.70
2022-12-08T04:12:35.259Z,21.35
2022-12-08T04:15:08.670Z,21.13
2022-12-08T04:17:55.166Z,20.90
2022-12-08T04:20:21.771Z,21.21
2022-12-08T04:22:48.272Z,20.13
2022-12-08T04:25:15.117Z,20.54
2022-12-08T04:27:41.627Z,20.53
2022-12-08T04:30:08.661Z,20.37
2022-12-08T04:32:35.208Z,20.40
2022-12-08T04:35:01.675Z,21.31
2022-12-08T04:37:28.565Z,22.12
2022-12-08T04:39:55.109Z,21.65
2022-12-08T04:42:21.565Z,22.42
2022-12-08T04:44:48.060Z,22.50
2022-12-08T04:47:14.577Z,21.66
2022-12-08T04:49:41.197Z,20.76
2022-12-08T04:52:07.657Z,21.12
2022-12-08T04:54:34.335Z,21.85
2022-12-08T04:57:00.801Z,22.81
2022-12-08T04:59:27.306Z,21.76
2022-12-08T05:01:53.998Z,22.03
2022-12-08T05:04:20.551Z,21.25
2022-12-08T05:06:47.172Z,21.78
2022-12-08T05:09:13.602Z,20.77
2022-12-08T05:11:42.735Z,21.65
2022-12-08T05:14:15.523Z,22.43
2022-12-08T05:16:43.109Z,23.31
2022-12-08T05:19:10.191Z,23.30
2022-12-08T05:21:36.686Z,22.61
2022-12-08T05:24:03.386Z,23.22
2022-12-08T05:26:30.388Z,23.45
2022-12-08T05:28:56.872Z,23.39
2022-12-08T05:31:23.600Z,23.76
2022-12-08T05:33:51.673Z,23.53
2022-12-08T05:36:19.284Z,23.14
2022-12-08T05:38:46.925Z,24.45
2022-12-08T05:41:17.672Z,23.99
2022-12-08T05:43:44.734Z,24.10
2022-12-08T05:46:12.009Z,24.42
2022-12-08T05:48:38.553Z,24.24
2022-12-08T05:51:07.559Z,23.42
2022-12-08T05:53:34.171Z,23.93
2022-12-08T05:56:00.798Z,24.40
2022-12-08T05:58:27.257Z,24.28
2022-12-08T06:00:53.732Z,24.10
2022-12-08T06:03:20.272Z,23.55
2022-12-08T06:05:47.399Z,23.50
2022-12-08T06:08:14.062Z,23.49
2022-12-08T06:10:42.889Z,23.61
2022-12-08T06:13:09.441Z,23.49
2022-12-08T06:15:37.174Z,22.36
2022-12-08T06:18:04.578Z,22.43
2022-12-08T06:20:31.354Z,21.66
2022-12-08T06:22:58.037Z,21.36
2022-12-08T06:25:24.927Z,21.04
2022-12-08T06:27:51.627Z,21.64
2022-12-08T06:30:18.419Z,20.76
2022-12-08T06:32:44.918Z,20.99
2022-12-08T06:35:11.390Z,21.08
2022-12-08T06:37:37.910Z,19.64
2022-12-08T06:40:04.968Z,19.50
2022-12-08T06:42:31.643Z,20.04
2022-12-08T06:44:58.318Z,20.05
2022-12-08T06:47:26.450Z,20.05
2022-12-08T06:49:53.175Z,20.31
2022-12-08T06:52:19.780Z,19.78
2022-12-08T06:54:46.278Z,20.44
2022-12-08T06:57:12.808Z,19.30
2022-12-08T06:59:39.376Z,19.64
2022-12-08T07:02:06.055Z,19.74
2022-12-08T07:04:32.611Z,20.28
2022-12-08T07:06:59.085Z,20.03
2022-12-08T07:09:25.613Z,19.65
2022-12-08T07:11:52.146Z,19.42
2022-12-08T07:14:18.641Z,19.66
2022-12-08T07:16:45.177Z,18.84
2022-12-08T07:19:11.726Z,18.71
2022-12-08T07:21:38.241Z,18.52
2022-12-08T07:24:05.086Z,19.13
2022-12-08T07:26:31.545Z,19.16
2022-12-08T07:28:59.764Z,18.94
2022-12-08T07:31:27.581Z,18.78
2022-12-08T07:33:56.029Z,17.78
2022-12-08T07:36:23.765Z,18.58
2022-12-08T07:38:51.442Z,19.00
2022-12-08T07:41:24.852Z,19.86
2022-12-08T07:43:52.576Z,20.15
2022-12-08T07:46:21.757Z,20.44
2022-12-08T07:48:48.320Z,19.26
2022-12-08T07:51:16.679Z,18.92
2022-12-08T07:53:51.574Z,19.36
2022-12-08T07:56:20.301Z,18.91
2022-12-08T07:58:47.063Z,18.86
2022-12-08T08:01:26.551Z,18.63
2022-12-08T08:03:54.911Z,19.95
2022-12-08T08:06:21.414Z,19.49
2022-12-08T08:08:48.449Z,19.94
2022-12-08T08:11:20.760Z,18.34
2022-12-08T08:13:49.047Z,18.63
2022-12-08T08:16:15.975Z,18.48
2022-12-08T08:18:43.124Z,19.18
2022-12-08T08:21:43.143Z,19.96
2022-12-08T08:23:56.207Z,19.35
2022-12-08T08:26:23.409Z,19.08
2022-12-08T08:28:49.914Z,19.26
2022-12-08T08:31:16.548Z,19.35
2022-12-08T08:33:43.099Z,19.05
2022-12-08T08:36:10.060Z,19.11
2022-12-08T08:38:36.938Z,19.55
2022-12-08T08:41:07.939Z,20.25
2022-12-08T08:43:38.136Z,19.62
2022-12-08T08:46:05.781Z,19.09
2022-12-08T08:48:33.001Z,19.26
2022-12-08T08:51:07.742Z,19.11
2022-12-08T08:53:34.334Z,17.86
2022-12-08T08:56:02.699Z,18.15
2022-12-08T08:58:29.616Z,18.37
2022-12-08T09:00:56.172Z,17.59
2022-12-08T09:03:22.813Z,17.63
2022-12-08T09:05:50.534Z,17.43
2022-12-08T09:08:17.385Z,16.58
2022-12-08T09:10:44.052Z,15.69
2022-12-08T09:13:10.878Z,17.05
2022-12-08T09:15:37.515Z,20.81
2022-12-08T09:18:04.437Z,21.04
2022-12-08T09:20:30.973Z,22.19
2022-12-08T09:22:57.536Z,22.06
2022-12-08T09:25:24.103Z,22.70
2022-12-08T09:27:50.663Z,23.18
2022-12-08T09:30:17.452Z,22.96
2022-12-08T09:32:44.002Z,22.25
2022-12-08T09:35:10.526Z,22.55
2022-12-08T09:37:37.066Z,22.50
2022-12-08T09:40:05.416Z,22.30
2022-12-08T09:42:59.108Z,23.12
2022-12-08T09:45:33.367Z,21.22
2022-12-08T09:48:11.562Z,21.59
2022-12-08T09:50:45.248Z,22.35
2022-12-08T09:53:35.646Z,22.34
2022-12-08T09:56:15.101Z,23.79
2022-12-08T09:59:21.072Z,22.83
2022-12-08T10:01:47.900Z,22.89
2022-12-08T10:04:22.034Z,21.86
2022-12-08T10:07:17.271Z,22.10
2022-12-08T10:10:08.367Z,21.75
2022-12-08T10:12:58.407Z,22.42
2022-12-08T10:15:43.760Z,23.17
2022-12-08T10:18:17.955Z,22.37
2022-12-08T10:20:47.888Z,23.94
2022-12-08T10:23:38.235Z,23.74
2022-12-08T10:26:08.968Z,22.59
2022-12-08T10:28:38.819Z,22.29
2022-12-08T10:31:22.385Z,23.00
2022-12-08T10:33:57.456Z,22.61
2022-12-08T10:36:44.555Z,24.16
2022-12-08T10:39:35.153Z,22.03
2022-12-08T10:42:08.616Z,22.86
2022-12-08T10:44:57.760Z,22.74
2022-12-08T10:47:27.370Z,22.90
2022-12-08T10:50:29.442Z,21.80
2022-12-08T10:53:26.167Z,22.05
2022-12-08T10:56:01.755Z,21.85
2022-12-08T10:58:30.166Z,21.75
2022-12-08T11:01:18.693Z,20.88
2022-12-08T11:04:04.754Z,22.12
2022-12-08T11:06:33.952Z,23.00
2022-12-08T11:09:05.265Z,22.46
2022-12-08T11:11:45.021Z,22.61
2022-12-08T11:14:27.473Z,22.46
2022-12-08T11:17:08.273Z,22.23
2022-12-08T11:19:40.584Z,23.99
2022-12-08T11:22:27.449Z,22.57
2022-12-08T11:25:03.637Z,22.06
2022-12-08T11:27:33.232Z,21.90
2022-12-08T11:30:01.813Z,22.30
2022-12-08T11:32:28.634Z,22.05
2022-12-08T11:35:05.305Z,21.48
2022-12-08T11:37:38.998Z,23.10
2022-12-08T11:40:20.078Z,22.85
2022-12-08T11:42:58.562Z,23.21
2022-12-08T11:45:32.819Z,23.23
2022-12-08T11:48:09.754Z,23.54
2022-12-08T11:50:50.455Z,26.24
2022-12-08T11:53:22.825Z,23.35
2022-12-08T11:55:57.857Z,22.71
2022-12-08T11:58:46.420Z,22.88
2022-12-08T12:01:20.293Z,21.72
2022-12-08T12:04:09.577Z,22.14
2022-12-08T12:07:07.534Z,23.23
2022-12-08T12:09:55.857Z,22.09
2022-12-08T12:13:16.800Z,22.14
2022-12-08T12:16:15.040Z,23.40
2022-12-08T12:18:44.214Z,24.21
2022-12-08T12:21:14.949Z,24.21
2022-12-08T12:23:55.486Z,22.67
2022-12-08T12:26:29.491Z,23.55
2022-12-08T12:29:07.512Z,23.21
2022-12-08T12:31:42.282Z,22.34
2022-12-08T12:34:25.607Z,21.89
2022-12-08T12:37:12.770Z,22.66
2022-12-08T12:40:03.455Z,21.54
2022-12-08T12:42:46.839Z,21.85
2022-12-08T12:45:15.946Z,21.96
2022-12-08T12:48:13.074Z,21.67
2022-12-08T12:50:39.484Z,20.85
2022-12-08T12:53:17.999Z,20.81
2022-12-08T12:55:53.509Z,22.14
2022-12-08T12:58:35.826Z,20.87
2022-12-08T13:01:08.318Z,20.23
2022-12-08T13:03:35.357Z,19.99
2022-12-08T13:06:02.696Z,21.40
2022-12-08T13:08:30.639Z,20.33
2022-12-08T13:11:09.929Z,20.28
2022-12-08T13:14:00.044Z,20.65
2022-12-08T13:16:36.603Z,20.73
2022-12-08T13:19:15.837Z,20.66
2022-12-08T13:21:42.676Z,21.20
2022-12-08T13:24:27.002Z,20.11
2022-12-08T13:27:05.664Z,21.21
2022-12-08T13:29:33.615Z,20.33
2022-12-08T13:32:30.695Z,19.20
2022-12-08T13:35:04.974Z,19.27
2022-12-08T13:37:54.002Z,18.91
2022-12-08T13:40:25.697Z,19.23
2022-12-08T13:43:26.304Z,19.12
2022-12-08T13:46:57.878Z,18.44
2022-12-08T13:57:30.402Z,16.54
2022-12-08T14:00:02.488Z,16.78
2022-12-08T14:02:47.470Z,16.91
2022-12-08T14:05:19.108Z,16.29
2022-12-08T14:07:51.824Z,17.15
2022-12-08T14:10:31.248Z,16.48
2022-12-08T14:13:05.356Z,17.65
2022-12-08T14:15:37.760Z,17.82
2022-12-08T14:18:06.731Z,16.57
2022-12-08T14:20:57.702Z,17.70
2022-12-08T14:23:22.051Z,18.55
2022-12-08T14:25:48.889Z,18.66
2022-12-08T14:28:16.306Z,18.77
2022-12-08T14:30:42.914Z,19.15
2022-12-08T14:33:15.881Z,18.67
2022-12-08T14:35:42.653Z,18.28
2022-12-08T14:38:18.217Z,17.31
2022-12-08T14:40:47.979Z,18.46
2022-12-08T14:43:20.638Z,19.42
2022-12-08T14:45:50.045Z,19.15
2022-12-08T14:48:25.679Z,18.81
2022-12-08T14:51:01.332Z,17.79
2022-12-08T14:53:43.561Z,17.84
2022-12-08T14:56:32.856Z,18.01
2022-12-08T14:59:20.449Z,18.40
2022-12-08T15:01:50.559Z,16.78
2022-12-08T15:04:25.770Z,16.82
2022-12-08T15:07:18.585Z,16.29
2022-12-08T15:09:48.524Z,18.22
2022-12-08T15:12:14.960Z,17.42
2022-12-08T15:15:14.239Z,17.91
2022-12-08T15:17:42.094Z,17.76
2022-12-08T15:20:35.494Z,17.89
2022-12-08T15:23:02.602Z,18.51
2022-12-08T15:25:29.248Z,18.06
2022-12-08T15:27:55.747Z,19.44
2022-12-08T15:30:22.383Z,18.64
2022-12-08T15:32:48.985Z,17.50
2022-12-08T15:35:16.901Z,17.30
2022-12-08T15:37:43.429Z,17.87
2022-12-08T15:40:17.533Z,18.48
2022-12-08T15:42:44.334Z,17.23
2022-12-08T15:45:15.985Z,19.29
2022-12-08T15:47:44.813Z,17.66
2022-12-08T15:50:17.310Z,16.91
2022-12-08T15:52:43.821Z,17.09
2022-12-08T15:55:19.326Z,17.25
2022-12-08T15:58:51.770Z,18.66
2022-12-08T16:00:54.301Z,19.15
2022-12-08T16:09:13.809Z,18.84
2022-12-08T16:12:05.155Z,18.61
2022-12-08T16:15:39.844Z,19.27
2022-12-08T16:17:17.971Z,20.43
2022-12-08T16:19:45.684Z,19.91
2022-12-08T16:22:51.681Z,20.21
2022-12-08T16:25:17.728Z,20.23
2022-12-08T16:28:17.385Z,20.07
2022-12-08T16:30:33.462Z,21.77
2022-12-08T16:32:59.917Z,20.14
2022-12-08T16:35:26.437Z,20.36
2022-12-08T16:37:53.174Z,21.47
2022-12-08T16:40:19.920Z,20.95
2022-12-08T16:42:46.691Z,21.07
2022-12-08T16:45:22.202Z,20.80
2022-12-08T16:47:53.755Z,20.59
2022-12-08T16:50:22.090Z,19.84
2022-12-08T16:52:55.372Z,19.17
2022-12-08T16:55:22.073Z,19.98
2022-12-08T16:57:48.607Z,20.71
2022-12-08T17:00:19.103Z,20.68
2022-12-08T17:02:46.276Z,21.14
2022-12-08T17:05:15.025Z,21.92
2022-12-08T17:07:44.036Z,22.68
2022-12-08T17:10:14.511Z,22.17
2022-12-08T17:12:41.501Z,21.62
2022-12-08T17:15:11.789Z,21.19
2022-12-08T17:17:38.905Z,21.83
2022-12-08T17:20:08.485Z,22.37
2022-12-08T17:22:36.037Z,21.58
2022-12-08T17:25:03.362Z,21.89
2022-12-08T17:27:29.912Z,22.16
2022-12-08T17:29:56.575Z,21.82
2022-12-08T17:32:23.862Z,22.20
2022-12-08T17:34:50.686Z,21.44
2022-12-08T17:37:18.495Z,22.01
2022-12-08T17:39:45.564Z,22.13
2022-12-08T17:42:12.061Z,22.45
2022-12-08T17:44:38.583Z,22.20
2022-12-08T17:47:05.476Z,22.00
2022-12-08T17:49:32.336Z,21.57
2022-12-08T17:52:02.191Z,22.21
2022-12-08T17:54:29.231Z,22.80
2022-12-08T17:56:56.474Z,22.23
2022-12-08T17:59:22.951Z,23.71
2022-12-08T18:01:52.229Z,24.20
2022-12-08T18:04:18.772Z,23.32
2022-12-08T18:06:45.669Z,22.86
2022-12-08T18:09:13.250Z,23.21
2022-12-08T18:11:40.014Z,23.05
2022-12-08T18:14:07.845Z,22.57
2022-12-08T18:16:34.709Z,23.77
2022-12-08T18:19:01.234Z,25.35
2022-12-08T18:21:28.311Z,24.95
2022-12-08T18:23:54.795Z,26.91
2022-12-08T18:26:21.246Z,24.50
2022-12-08T18:28:47.995Z,26.93
2022-12-08T18:31:18.673Z,26.56
2022-12-08T18:33:47.103Z,25.63
2022-12-08T18:36:19.903Z,25.27
2022-12-08T18:38:47.272Z,24.75
2022-12-08T18:41:18.036Z,24.82
2022-12-08T18:43:45.190Z,24.53
2022-12-08T18:46:14.224Z,24.96
2022-12-08T18:48:43.813Z,25.19
2022-12-08T18:51:21.725Z,24.19
2022-12-08T18:53:49.220Z,23.88
2022-12-08T18:56:28.172Z,24.22
2022-12-08T18:59:01.488Z,25.60
2022-12-08T19:01:30.397Z,25.27
2022-12-08T19:04:26.647Z,24.63
2022-12-08T19:06:45.552Z,25.13
2022-12-08T19:09:12.336Z,24.98
2022-12-08T19:11:38.910Z,24.57
2022-12-08T19:14:05.382Z,24.35
2022-12-08T19:16:31.961Z,24.37
2022-12-08T19:18:58.983Z,24.48
2022-12-08T19:21:25.810Z,25.50
2022-12-08T19:23:52.983Z,25.74
2022-12-08T19:26:20.317Z,26.28
2022-12-08T19:28:47.612Z,26.89
2022-12-08T19:31:14.456Z,26.27
2022-12-08T19:33:41.028Z,25.48
2022-12-08T19:36:12.080Z,26.13
2022-12-08T19:38:38.649Z,26.47
2022-12-08T19:41:05.309Z,25.13
2022-12-08T19:43:31.760Z,25.29
2022-12-08T19:45:58.425Z,23.80
2022-12-08T19:48:25.119Z,25.40
2022-12-08T19:50:51.617Z,26.67
2022-12-08T19:53:18.219Z,26.54
2022-12-08T19:55:44.853Z,27.20
2022-12-08T19:58:11.404Z,27.65
2022-12-08T20:00:39.223Z,26.42
2022-12-08T20:03:06.398Z,25.96
2022-12-08T20:05:36.107Z,24.51
2022-12-08T20:08:02.671Z,24.34
2022-12-08T20:10:32.720Z,24.74
2022-12-08T20:13:00.481Z,24.95
2022-12-08T20:15:26.987Z,26.25
2022-12-08T20:17:53.499Z,25.45
2022-12-08T20:20:19.972Z,25.90
2022-12-08T20:22:46.521Z,25.85
2022-12-08T20:25:13.538Z,24.41
2022-12-08T20:27:40.896Z,24.27
2022-12-08T20:30:13.327Z,24.97
2022-12-08T20:32:43.233Z,24.62
2022-12-08T20:35:09.770Z,25.43
2022-12-08T20:37:36.241Z,28.76
2022-12-08T20:40:03.639Z,29.64
2022-12-08T20:42:30.153Z,26.61
2022-12-08T20:44:56.651Z,25.72
2022-12-08T20:47:23.332Z,25.69
2022-12-08T20:49:49.937Z,25.66
2022-12-08T20:52:16.571Z,25.26
2022-12-08T20:54:43.156Z,24.81
2022-12-08T20:57:09.879Z,25.02
2022-12-08T20:59:36.369Z,25.16
2022-12-08T21:02:03.248Z,25.75
2022-12-08T21:04:30.275Z,25.62
2022-12-08T21:06:56.975Z,25.61
2022-12-08T21:09:23.690Z,26.65
2022-12-08T21:11:50.414Z,26.06
2022-12-08T21:14:16.888Z,25.36
2022-12-08T21:16:43.733Z,25.07
2022-12-08T21:19:11.630Z,26.00
2022-12-08T21:21:38.258Z,24.64
2022-12-08T21:24:05.189Z,22.91
2022-12-08T21:26:31.841Z,22.42
2022-12-08T21:28:58.478Z,21.61
2022-12-08T21:31:25.417Z,22.67
2022-12-08T21:33:52.327Z,21.79
2022-12-08T21:36:21.347Z,22.63
2022-12-08T21:38:48.715Z,23.68
2022-12-08T21:41:18.325Z,23.99
2022-12-08T21:43:45.005Z,24.67
2022-12-08T21:46:16.037Z,24.65
2022-12-08T21:48:42.819Z,25.86
2022-12-08T21:51:09.669Z,34.42
2022-12-08T21:53:36.474Z,28.00
2022-12-08T21:56:08.891Z,26.61
2022-12-08T21:58:35.691Z,25.95
2022-12-08T22:01:06.897Z,26.02
2022-12-08T22:03:33.877Z,25.22
2022-12-08T22:06:10.518Z,26.23
2022-12-08T22:08:37.160Z,25.45
2022-12-08T22:11:04.879Z,25.41
2022-12-08T22:13:34.666Z,26.00
2022-12-08T22:16:04.805Z,25.75
2022-12-08T22:18:32.278Z,26.76
2022-12-08T22:20:58.908Z,25.66
2022-12-08T22:23:25.759Z,26.24
2022-12-08T22:25:59.656Z,25.54
2022-12-08T22:28:27.545Z,26.21
2022-12-08T22:30:54.328Z,26.13
2022-12-08T22:33:21.141Z,26.25
2022-12-08T22:36:08.348Z,26.51
2022-12-08T22:38:37.082Z,27.44
2022-12-08T22:41:04.901Z,26.67
2022-12-08T22:43:31.434Z,26.71
2022-12-08T22:45:57.991Z,27.25
2022-12-08T22:48:24.843Z,26.60
2022-12-08T22:50:51.561Z,26.95
2022-12-08T22:53:17.999Z,27.06
2022-12-08T22:55:44.735Z,27.15
2022-12-08T22:58:12.302Z,27.36
2022-12-08T23:00:39.538Z,27.60
2022-12-08T23:03:06.904Z,27.56
2022-12-08T23:05:38.885Z,28.28
2022-12-08T23:08:07.327Z,27.87
2022-12-08T23:10:35.830Z,28.88
2022-12-08T23:13:04.149Z,28.75
2022-12-08T23:15:32.108Z,28.26
2022-12-08T23:17:58.804Z,28.24
2022-12-08T23:20:25.430Z,28.75
2022-12-08T23:22:51.961Z,29.44
2022-12-08T23:25:18.625Z,29.47
2022-12-08T23:27:46.252Z,28.61
2022-12-08T23:30:13.704Z,30.12
2022-12-08T23:32:40.872Z,28.94
2022-12-08T23:35:08.503Z,29.86
2022-12-08T23:37:35.544Z,30.18
2022-12-08T23:40:02.093Z,31.97
2022-12-08T23:42:29.548Z,43.04
2022-12-08T23:44:56.117Z,33.10
2022-12-08T23:47:22.725Z,30.78
2022-12-08T23:49:49.261Z,28.94
2022-12-08T23:52:16.026Z,28.79
2022-12-08T23:54:42.540Z,28.87
2022-12-08T23:57:09.029Z,28.74
2022-12-08T23:59:35.487Z,28.14
